Time;durP1;ratioP1;P1;durP2;ratioP2;P2;SDS_P1;SDS_P2;PMS_P1;PMS_P2;Temp;Humidity;BMP_temperature;BMP_pressure;BME280_temperature;BME280_humidity;BME280_pressure;Samples;Min_cycle;Max_cycle;Signal;HPM_P1;HPM_P2
2022/06/21 00:00:52;;;;;;;;;;;;;;;18.24;65.14;99829.22;4980597;28;1305;-96
2022/06/21 00:03:19;;;;;;;;;;;;;;;18.23;64.87;99833.03;4980713;28;1295;-96
2022/06/21 00:05:45;;;;;;;;;;;;;;;18.22;64.62;99834.13;4980792;28;1326;-96
2022/06/21 00:08:12;;;;;;;;;;;;;;;18.21;64.93;99827.88;4979888;28;1208;-96
2022/06/21 00:10:38;;;;;;;;;;;;;;;18.20;64.85;99828.97;4971601;28;1599;-96
2022/06/21 00:13:05;;;;;;;;;;;;;;;18.17;64.77;99822.16;4980217;28;1365;-96
2022/06/21 00:15:31;;;;;;;;;;;;;;;18.17;64.86;99827.63;4990591;28;1899;-96
2022/06/21 00:17:58;;;;;;;;;;;;;;;18.17;64.59;99822.16;4993306;28;1580;-96
2022/06/21 00:20:25;;;;;;;;;;;;;;;18.16;64.61;99822.47;4980522;28;1293;-96
2022/06/21 00:22:51;;;;;;;;;;;;;;;18.15;64.93;99824.41;4990203;28;1308;-96
2022/06/21 00:25:18;;;;;;;;;;;;;;;18.13;64.76;99826.59;4990834;28;1929;-96
2022/06/21 00:27:44;;;;;;;;;;;;;;;18.13;64.51;99823.84;4962139;28;2364;-96
2022/06/21 00:30:11;;;;;;;;;;;;;;;18.11;64.51;99817.88;4961059;28;1308;-96
2022/06/21 00:32:37;;;;;;;;;;;;;;;18.11;64.51;99819.78;4976913;28;1292;-96
2022/06/21 00:35:04;;;;;;;;;;;;;;;18.10;64.69;99816.25;4983475;28;1919;-96
2022/06/21 00:37:30;;;;;;;;;;;;;;;18.09;64.73;99819.28;4983494;28;1170;-96
2022/06/21 00:39:57;;;;;;;;;;;;;;;18.08;64.63;99812.19;4993949;28;1245;-96
2022/06/21 00:42:23;;;;;;;;;;;;;;;18.07;64.67;99822.28;4989992;28;3432;-96
2022/06/21 00:44:50;;;;;;;;;;;;;;;18.06;64.64;99815.22;4964407;28;2221;-96
2022/06/21 00:47:17;;;;;;;;;;;;;;;18.06;64.58;99817.09;4964253;28;1317;-96
2022/06/21 00:49:43;;;;;;;;;;;;;;;18.04;64.52;99816.59;4986349;28;1373;-96
2022/06/21 00:52:10;;;;;;;;;;;;;;;18.02;64.57;99825.06;5002759;28;1173;-96
2022/06/21 00:54:36;;;;;;;;;;;;;;;18.02;64.55;99824.25;4981503;28;2033;-96
2022/06/21 00:57:03;;;;;;;;;;;;;;;18.01;64.56;99820.72;4963766;28;1275;-96
2022/06/21 00:59:29;;;;;;;;;;;;;;;18.00;64.49;99821.81;4990777;28;2229;-96
2022/06/21 01:01:56;;;;;;;;;;;;;;;17.99;64.19;99814.72;4993928;28;1325;-96
2022/06/21 01:04:24;;;;;;;;;;;;;;;17.98;64.45;99818.56;4982089;28;1988;-96
2022/06/21 01:06:51;;;;;;;;;;;;;;;17.98;64.49;99821.28;4983339;28;1105;-96
2022/06/21 01:09:17;;;;;;;;;;;;;;;17.97;64.33;99810.66;4983027;28;1194;-96
2022/06/21 01:11:44;;;;;;;;;;;;;;;17.95;64.41;99819.13;4992963;28;1270;-96
2022/06/21 01:14:10;;;;;;;;;;;;;;;17.95;64.39;99813.69;4983992;28;2241;-96
2022/06/21 01:16:37;;;;;;;;;;;;;;;17.94;64.35;99812.03;4982660;28;1259;-96
2022/06/21 01:19:05;;;;;;;;;;;;;;;17.93;64.33;99813.97;4988504;28;1215;-96
2022/06/21 01:21:31;;;;;;;;;;;;;;;17.91;64.45;99799.84;5002083;28;1211;-96
2022/06/21 01:23:58;;;;;;;;;;;;;;;17.91;64.22;99801.72;4995022;28;2288;-96
2022/06/21 01:26:25;;;;;;;;;;;;;;;17.89;64.27;99799.28;4982347;28;1275;-96
2022/06/21 01:28:51;;;;;;;;;;;;;;;17.88;64.21;99792.25;4977532;28;1678;-96
2022/06/21 01:31:18;;;;;;;;;;;;;;;17.87;64.29;99796.03;4965054;28;2227;-96
2022/06/21 01:33:45;;;;;;;;;;;;;;;17.87;64.28;99787.06;4970693;28;2444;-96
2022/06/21 01:36:11;;;;;;;;;;;;;;;17.85;64.23;99787.38;4973425;28;1907;-96
2022/06/21 01:38:38;;;;;;;;;;;;;;;17.84;64.16;99783.00;4994651;28;1215;-96
2022/06/21 01:41:05;;;;;;;;;;;;;;;17.83;63.94;99786.03;4980803;28;1677;-96
2022/06/21 01:43:31;;;;;;;;;;;;;;;17.82;63.85;99781.66;4976545;28;2308;-96
2022/06/21 01:45:58;;;;;;;;;;;;;;;17.81;64.08;99775.41;4972324;28;2147;-96
2022/06/21 01:48:24;;;;;;;;;;;;;;;17.80;63.84;99768.34;4968533;28;2179;-96
2022/06/21 01:50:51;;;;;;;;;;;;;;;17.78;63.86;99765.06;5001851;28;2177;-96
2022/06/21 01:53:18;;;;;;;;;;;;;;;17.77;63.80;99757.97;4978988;28;2099;-96
2022/06/21 01:55:45;;;;;;;;;;;;;;;17.76;64.05;99759.06;4978849;28;2412;-96
2022/06/21 01:58:11;;;;;;;;;;;;;;;17.75;63.82;99760.19;4975289;28;3652;-96
2022/06/21 02:00:38;;;;;;;;;;;;;;;17.75;64.11;99764.81;4966953;28;2225;-96
2022/06/21 02:03:05;;;;;;;;;;;;;;;17.73;63.98;99756.91;4975593;28;2308;-96
2022/06/21 02:05:31;;;;;;;;;;;;;;;17.71;63.91;99754.50;4970126;28;1416;-96
2022/06/21 02:07:58;;;;;;;;;;;;;;;17.71;63.76;99753.69;4961937;28;1388;-96
2022/06/21 02:10:25;;;;;;;;;;;;;;;17.69;63.80;99750.44;4987404;28;2434;-96
2022/06/21 02:12:52;;;;;;;;;;;;;;;17.68;63.80;99754.25;4963146;28;2272;-96
2022/06/21 02:15:18;;;;;;;;;;;;;;;17.67;63.94;99758.88;4984979;28;1919;-96
2022/06/21 02:17:45;;;;;;;;;;;;;;;17.66;63.78;99761.91;4977025;28;1353;-96
2022/06/21 02:20:12;;;;;;;;;;;;;;;17.65;63.87;99765.72;4980890;28;1239;-96
2022/06/21 02:22:39;;;;;;;;;;;;;;;17.63;63.87;99754.28;4975057;28;1733;-96
2022/06/21 02:25:05;;;;;;;;;;;;;;;17.62;63.73;99756.22;4977376;28;2487;-96
2022/06/21 02:27:32;;;;;;;;;;;;;;;17.61;63.76;99757.28;4962402;28;2168;-96
2022/06/21 02:29:58;;;;;;;;;;;;;;;17.60;63.73;99765.75;4969641;28;2743;-96
2022/06/21 02:32:25;;;;;;;;;;;;;;;17.59;63.83;99759.50;4977814;28;1346;-96
2022/06/21 02:34:51;;;;;;;;;;;;;;;17.59;63.83;99766.84;4991883;28;2220;-96
2022/06/21 02:37:18;;;;;;;;;;;;;;;17.56;63.86;99770.13;4976968;28;1337;-96
2022/06/21 02:39:44;;;;;;;;;;;;;;;17.56;63.72;99759.25;4992043;28;1342;-96
2022/06/21 02:42:11;;;;;;;;;;;;;;;17.55;63.56;99768.50;5000282;28;1313;-96
2022/06/21 02:44:37;;;;;;;;;;;;;;;17.54;63.62;99772.34;4987561;28;2214;-96
2022/06/21 02:47:04;;;;;;;;;;;;;;;17.52;63.59;99767.16;4980295;28;1252;-96
2022/06/21 02:49:30;;;;;;;;;;;;;;;17.50;63.73;99755.78;4981068;28;1293;-96
2022/06/21 02:51:57;;;;;;;;;;;;;;;17.50;63.75;99758.50;4987759;28;2284;-96
2022/06/21 02:54:24;;;;;;;;;;;;;;;17.48;63.79;99766.13;4981885;28;2289;-96
2022/06/21 02:56:50;;;;;;;;;;;;;;;17.47;63.74;99773.50;4988385;28;1196;-96
2022/06/21 02:59:17;;;;;;;;;;;;;;;17.46;63.54;99768.31;4982459;28;2261;-96
2022/06/21 03:01:43;;;;;;;;;;;;;;;17.45;63.68;99769.41;4970596;28;2340;-96
2022/06/21 03:04:10;;;;;;;;;;;;;;;17.44;63.53;99767.78;4979192;28;2361;-96
2022/06/21 03:06:37;;;;;;;;;;;;;;;17.42;63.49;99781.69;4985977;28;2713;-96
2022/06/21 03:09:03;;;;;;;;;;;;;;;17.41;63.48;99780.06;4978164;28;1277;-96
2022/06/21 03:11:30;;;;;;;;;;;;;;;17.41;63.60;99773.78;4980235;28;2209;-96
2022/06/21 03:13:56;;;;;;;;;;;;;;;17.40;63.48;99775.69;4967683;28;2289;-96
2022/06/21 03:16:23;;;;;;;;;;;;;;;17.37;63.71;99770.81;4965353;28;2250;-96
2022/06/21 03:18:50;;;;;;;;;;;;;;;17.37;63.59;99772.75;4990160;28;2248;-96
2022/06/21 03:21:16;;;;;;;;;;;;;;;17.36;63.39;99779.28;4979133;28;1291;-96
2022/06/21 03:23:44;;;;;;;;;;;;;;;17.34;63.45;99773.31;4978266;28;1246;-96
2022/06/21 03:26:10;;;;;;;;;;;;;;;17.33;63.38;99777.13;4977925;28;2277;-96
2022/06/21 03:28:37;;;;;;;;;;;;;;;17.32;63.43;99780.94;4973812;28;2214;-96
2022/06/21 03:31:03;;;;;;;;;;;;;;;17.31;63.44;99774.69;4972992;28;2356;-96
2022/06/21 03:33:30;;;;;;;;;;;;;;;17.29;63.41;99773.34;4972126;28;2263;-96
2022/06/21 03:35:56;;;;;;;;;;;;;;;17.28;63.28;99774.44;4989764;28;1969;-96
2022/06/21 03:38:23;;;;;;;;;;;;;;;17.27;63.45;99776.34;4978115;28;2307;-96
2022/06/21 03:43:34;;;;;;;;;;;;;;;17.24;63.25;99771.47;4967289;28;2591;-96
2022/06/21 03:46:00;;;;;;;;;;;;;;;17.23;63.17;99778.00;4972347;28;1803;-96
2022/06/21 03:48:27;;;;;;;;;;;;;;;17.22;63.04;99771.75;4959154;28;2316;-96
2022/06/21 03:50:55;;;;;;;;;;;;;;;17.21;63.14;99772.84;4976145;28;1280;-96
2022/06/21 03:53:21;;;;;;;;;;;;;;;17.19;63.19;99777.75;4974904;28;2394;-96
2022/06/21 03:55:48;;;;;;;;;;;;;;;17.18;63.16;99781.59;4975466;28;1915;-96
2022/06/21 03:58:14;;;;;;;;;;;;;;;17.18;63.29;99781.59;4981860;28;2299;-96
2022/06/21 04:00:43;;;;;;;;;;;;;;;17.16;63.22;99770.16;4994238;28;3165;-96
2022/06/21 04:03:10;;;;;;;;;;;;;;;17.15;63.26;99768.53;4976660;28;4121;-96
2022/06/21 04:05:37;;;;;;;;;;;;;;;17.15;63.11;99776.72;4977910;28;1905;-96
2022/06/21 04:08:03;;;;;;;;;;;;;;;17.15;63.18;99771.25;4964101;28;1193;-96
2022/06/21 04:10:30;;;;;;;;;;;;;;;17.12;63.29;99774.56;4981048;28;2328;-96
2022/06/21 04:12:57;;;;;;;;;;;;;;;17.12;63.07;99777.28;4974970;28;2254;-96
2022/06/21 04:15:24;;;;;;;;;;;;;;;17.12;63.09;99781.88;4963252;28;2286;-96
2022/06/21 04:17:50;;;;;;;;;;;;;;;17.10;63.08;99774.00;4963623;28;1391;-96
2022/06/21 04:20:17;;;;;;;;;;;;;;;17.09;63.12;99780.56;4972520;28;2287;-96
2022/06/21 04:22:43;;;;;;;;;;;;;;;17.08;63.05;99783.53;4980052;28;2088;-96
2022/06/21 04:25:10;;;;;;;;;;;;;;;17.08;63.12;99781.63;4978499;28;1949;-96
2022/06/21 04:27:37;;;;;;;;;;;;;;;17.06;62.94;99777.56;4972268;28;2202;-95
2022/06/21 04:30:04;;;;;;;;;;;;;;;17.06;62.87;99777.56;4972843;28;2044;-96
2022/06/21 04:32:30;;;;;;;;;;;;;;;17.04;63.05;99772.41;4981210;28;2194;-96
2022/06/21 04:34:57;;;;;;;;;;;;;;;17.04;62.99;99775.13;4977384;28;2237;-96
2022/06/21 04:37:24;;;;;;;;;;;;;;;17.02;62.90;99777.31;4967946;28;2277;-96
2022/06/21 04:39:50;;;;;;;;;;;;;;;17.02;62.80;99769.16;4965709;28;3378;-96
2022/06/21 04:42:17;;;;;;;;;;;;;;;17.02;62.92;99769.16;4972117;28;2290;-96
2022/06/21 04:44:43;;;;;;;;;;;;;;;17.01;62.93;99772.97;4979502;28;2260;-96
2022/06/21 04:47:10;;;;;;;;;;;;;;;17.01;62.86;99775.69;4980835;28;1279;-96
2022/06/21 04:49:36;;;;;;;;;;;;;;;17.00;62.78;99765.91;4984509;28;2335;-96
2022/06/21 04:52:03;;;;;;;;;;;;;;;16.99;62.92;99764.28;4970369;28;1216;-96
2022/06/21 04:54:29;;;;;;;;;;;;;;;16.98;62.70;99765.38;4973524;28;2178;-96
2022/06/21 04:56:56;;;;;;;;;;;;;;;16.97;62.76;99767.28;4965401;28;3169;-96
2022/06/21 04:59:22;;;;;;;;;;;;;;;16.97;62.79;99771.91;4964406;28;3793;-96
2022/06/21 05:01:49;;;;;;;;;;;;;;;16.96;62.85;99778.44;4988175;28;2404;-96
2022/06/21 05:04:15;;;;;;;;;;;;;;;16.96;62.73;99779.25;4977228;28;2650;-96
2022/06/21 05:06:42;;;;;;;;;;;;;;;16.95;62.79;99776.81;4973308;28;1270;-96
2022/06/21 05:09:09;;;;;;;;;;;;;;;16.93;62.84;99782.53;4965898;28;2226;-96
2022/06/21 05:11:35;;;;;;;;;;;;;;;16.93;62.76;99774.38;4978922;28;2126;-96
2022/06/21 05:14:02;;;;;;;;;;;;;;;16.94;62.80;99783.34;4994099;28;2237;-96
2022/06/21 05:16:28;;;;;;;;;;;;;;;16.92;62.79;99783.63;4968267;28;1951;-96
2022/06/21 05:18:55;;;;;;;;;;;;;;;16.91;62.69;99782.03;4961330;28;1290;-96
2022/06/21 05:21:22;;;;;;;;;;;;;;;16.90;62.71;99783.09;4981222;28;1689;-96
2022/06/21 05:23:48;;;;;;;;;;;;;;;16.91;62.70;99783.91;5000625;28;1284;-96
2022/06/21 05:26:15;;;;;;;;;;;;;;;16.90;62.73;99782.28;4990874;28;2198;-96
2022/06/21 05:28:42;;;;;;;;;;;;;;;16.89;62.75;99777.94;4979006;28;2138;-95
2022/06/21 05:31:08;;;;;;;;;;;;;;;16.88;62.60;99779.84;4984565;28;1469;-96
2022/06/21 05:33:35;;;;;;;;;;;;;;;16.87;62.66;99772.78;4980685;28;1153;-96
2022/06/21 05:36:01;;;;;;;;;;;;;;;16.86;62.53;99770.34;4961937;28;1923;-95
2022/06/21 05:38:29;;;;;;;;;;;;;;;16.85;62.62;99777.69;4976359;28;1597;-96
2022/06/21 05:40:56;;;;;;;;;;;;;;;16.85;62.74;99783.13;4975838;28;1933;-95
2022/06/21 05:43:23;;;;;;;;;;;;;;;16.85;62.44;99783.13;4972287;28;3740;-96
2022/06/21 05:45:49;;;;;;;;;;;;;;;16.84;62.70;99775.25;4982122;28;1352;-96
2022/06/21 05:48:16;;;;;;;;;;;;;;;16.83;62.52;99777.16;5002691;28;3311;-95
2022/06/21 05:50:43;;;;;;;;;;;;;;;16.83;62.68;99779.88;4997010;28;1952;-96
2022/06/21 05:53:11;;;;;;;;;;;;;;;16.82;62.62;99780.94;4986971;28;1310;-96
2022/06/21 05:55:41;;;;;;;;;;;;;;;16.82;62.38;99772.78;4997461;28;1922;-96
2022/06/21 05:58:09;;;;;;;;;;;;;;;16.83;62.53;99776.34;4970561;28;1463;-96
2022/06/21 06:00:36;;;;;;;;;;;;;;;16.82;62.29;99775.50;4972420;28;1487;-96
2022/06/21 06:03:02;;;;;;;;;;;;;;;16.82;62.39;99778.22;4974695;28;2478;-95
2022/06/21 06:05:30;;;;;;;;;;;;;;;16.82;62.54;99777.44;4991776;28;1381;-96
2022/06/21 06:07:57;;;;;;;;;;;;;;;16.81;62.51;99773.91;4991211;28;2237;-96
2022/06/21 06:10:23;;;;;;;;;;;;;;;16.81;62.48;99771.19;4973972;28;1292;-96
2022/06/21 06:12:50;;;;;;;;;;;;;;;16.82;62.51;99780.16;4977955;28;3881;-96
2022/06/21 06:15:16;;;;;;;;;;;;;;;16.82;62.33;99782.88;4979079;28;2276;-95
2022/06/21 06:17:43;;;;;;;;;;;;;;;16.80;62.43;99783.97;4979244;28;2139;-96
2022/06/21 06:20:10;;;;;;;;;;;;;;;16.80;62.38;99785.88;4980056;28;1204;-95
2022/06/21 06:22:36;;;;;;;;;;;;;;;16.80;62.40;99785.88;4971402;28;3665;-95
2022/06/21 06:25:03;;;;;;;;;;;;;;;16.79;62.27;99782.34;4974021;28;4113;-96
2022/06/21 06:27:30;;;;;;;;;;;;;;;16.79;62.36;99786.94;4978423;28;2138;-96
2022/06/21 06:29:56;;;;;;;;;;;;;;;16.78;62.22;99783.44;4979520;28;2553;-96
2022/06/21 06:32:22;;;;;;;;;;;;;;;16.78;62.37;99782.63;4975739;28;3340;-94
2022/06/21 06:34:49;;;;;;;;;;;;;;;16.76;62.33;99791.03;4970719;28;2472;-94
2022/06/21 06:37:15;;;;;;;;;;;;;;;16.78;62.29;99779.91;4968619;28;1910;-95
2022/06/21 06:39:42;;;;;;;;;;;;;;;16.78;62.28;99780.72;4989126;28;2163;-95
2022/06/21 06:42:09;;;;;;;;;;;;;;;16.78;62.41;99780.72;4971624;28;2154;-95
2022/06/21 06:44:36;;;;;;;;;;;;;;;16.79;62.23;99778.78;4975751;28;1809;-95
2022/06/21 06:47:03;;;;;;;;;;;;;;;16.78;62.35;99778.00;4978071;28;2195;-95
2022/06/21 06:49:30;;;;;;;;;;;;;;;16.78;62.16;99778.00;4966130;28;4976;-95
2022/06/21 06:51:56;;;;;;;;;;;;;;;16.78;62.17;99783.44;4962404;28;1836;-95
2022/06/21 06:54:23;;;;;;;;;;;;;;;16.78;62.21;99783.44;4973296;28;2585;-94
2022/06/21 06:56:49;;;;;;;;;;;;;;;16.78;62.16;99791.59;4976052;28;3347;-94
2022/06/21 06:59:16;;;;;;;;;;;;;;;16.79;62.07;99784.22;4988592;28;2265;-96
2022/06/21 07:01:42;;;;;;;;;;;;;;;16.78;61.98;99778.00;4976695;28;3851;-94
2022/06/21 07:04:09;;;;;;;;;;;;;;;16.79;62.30;99778.78;5004585;28;3833;-95
2022/06/21 07:06:35;;;;;;;;;;;;;;;16.79;62.29;99776.91;4984229;28;1244;-95
2022/06/21 07:09:02;;;;;;;;;;;;;;;16.79;62.31;99776.91;4986889;28;1249;-95
2022/06/21 07:11:28;;;;;;;;;;;;;;;16.80;61.94;99780.44;4969983;28;2161;-95
2022/06/21 07:13:55;;;;;;;;;;;;;;;16.80;61.95;99778.53;4959610;28;1286;-96
2022/06/21 07:16:21;;;;;;;;;;;;;;;16.80;61.97;99775.81;4961517;28;4050;-96
2022/06/21 07:18:48;;;;;;;;;;;;;;;16.80;62.07;99775.81;4956046;28;2151;-95
2022/06/21 07:21:15;;;;;;;;;;;;;;;16.79;62.03;99771.47;4953365;29;1689;-96
2022/06/21 07:23:42;;;;;;;;;;;;;;;16.80;62.01;99777.72;4942037;28;1170;-96
2022/06/21 07:26:09;;;;;;;;;;;;;;;16.80;62.01;99783.97;4955764;29;2116;-95
2022/06/21 07:28:36;;;;;;;;;;;;;;;16.85;61.53;99788.56;4941321;29;1281;-96
2022/06/21 07:31:02;;;;;;;;;;;;;;;16.91;60.89;99786.63;4940415;29;1193;-95
2022/06/21 07:33:29;;;;;;;;;;;;;;;16.86;61.12;99801.06;4949242;28;4077;-95
2022/06/21 07:35:56;;;;;;;;;;;;;;;16.85;61.01;99798.63;4954047;28;3726;-96
2022/06/21 07:38:22;;;;;;;;;;;;;;;16.84;61.30;99792.38;4958508;28;2186;-96
2022/06/21 07:40:49;;;;;;;;;;;;;;;16.84;61.36;99794.28;4957173;28;3850;-95
2022/06/21 07:43:15;;;;;;;;;;;;;;;16.83;61.11;99795.38;4959178;28;1357;-96
2022/06/21 07:45:42;;;;;;;;;;;;;;;16.84;61.34;99800.53;4972758;28;2284;-96
2022/06/21 07:48:08;;;;;;;;;;;;;;;16.85;61.58;99802.16;4966560;28;2190;-96
2022/06/21 07:50:35;;;;;;;;;;;;;;;16.84;61.44;99797.00;4947521;29;1468;-96
2022/06/21 07:53:02;;;;;;;;;;;;;;;16.85;61.34;99798.63;4953479;28;1192;-96
2022/06/21 07:55:28;;;;;;;;;;;;;;;16.84;61.43;99802.44;4953762;28;3854;-96
2022/06/21 07:57:55;;;;;;;;;;;;;;;16.85;61.59;99798.63;4957250;28;1982;-96
2022/06/21 08:00:22;;;;;;;;;;;;;;;16.85;61.39;99793.19;4970776;28;1361;-96
2022/06/21 08:08:17;;;;;;;;;;;;;;;16.85;61.18;99796.72;4954303;29;2258;-96
2022/06/21 08:10:44;;;;;;;;;;;;;;;16.85;61.20;99799.44;4945665;28;2195;-96
2022/06/21 08:13:11;;;;;;;;;;;;;;;16.86;61.58;99797.56;4972597;28;3326;-96
2022/06/21 08:15:38;;;;;;;;;;;;;;;16.86;61.41;99795.63;4978018;28;1207;-96
2022/06/21 08:18:04;;;;;;;;;;;;;;;16.85;61.48;99791.28;4978432;28;1965;-96
2022/06/21 08:20:31;;;;;;;;;;;;;;;16.87;61.66;99799.16;4976559;28;2212;-96
2022/06/21 08:22:58;;;;;;;;;;;;;;;16.87;61.58;99802.69;4978441;28;1190;-96
2022/06/21 08:25:24;;;;;;;;;;;;;;;16.87;61.68;99802.69;4976753;28;2204;-96
2022/06/21 08:27:51;;;;;;;;;;;;;;;16.88;61.73;99803.50;4968415;28;3924;-96
2022/06/21 08:30:17;;;;;;;;;;;;;;;16.88;61.50;99809.75;4974602;28;2055;-95
2022/06/21 08:32:44;;;;;;;;;;;;;;;16.88;61.59;99806.22;4994407;28;1307;-96
2022/06/21 08:35:11;;;;;;;;;;;;;;;16.88;61.57;99809.75;4976795;28;2487;-96
2022/06/21 08:37:37;;;;;;;;;;;;;;;16.88;61.66;99807.03;4978269;28;1927;-96
2022/06/21 08:40:04;;;;;;;;;;;;;;;16.89;61.58;99805.97;4965403;28;2365;-95
2022/06/21 08:42:30;;;;;;;;;;;;;;;16.90;61.68;99810.28;4978516;28;1173;-96
2022/06/21 08:45:40;;;;;;;;;;;;;;;16.89;61.39;99803.22;4964219;28;1208;-96
2022/06/21 08:47:44;;;;;;;;;;;;;;;16.91;61.48;99797.50;4958639;28;1146;-96
2022/06/21 08:50:10;;;;;;;;;;;;;;;16.91;61.70;99801.06;4959106;28;1262;-96
2022/06/21 08:52:37;;;;;;;;;;;;;;;16.91;61.55;99802.94;4963903;28;2033;-96
2022/06/21 08:55:03;;;;;;;;;;;;;;;16.93;61.71;99806.19;4981124;28;1186;-96
2022/06/21 08:57:30;;;;;;;;;;;;;;;16.93;61.67;99801.56;4980349;28;2347;-96
2022/06/21 08:59:56;;;;;;;;;;;;;;;16.94;61.80;99799.66;4982101;28;1213;-96
2022/06/21 09:02:23;;;;;;;;;;;;;;;16.94;61.69;99799.66;4981293;28;1454;-96
2022/06/21 09:04:50;;;;;;;;;;;;;;;16.93;61.57;99798.84;4978249;28;3797;-95
2022/06/21 09:07:16;;;;;;;;;;;;;;;16.94;61.65;99795.06;4981295;28;1286;-96
2022/06/21 09:09:43;;;;;;;;;;;;;;;16.94;61.54;99797.78;4967534;28;1652;-96
2022/06/21 09:12:09;;;;;;;;;;;;;;;16.95;61.50;99791.22;4970277;28;3624;-96
2022/06/21 09:14:36;;;;;;;;;;;;;;;16.96;61.62;99798.28;4988277;28;1524;-96
2022/06/21 09:17:02;;;;;;;;;;;;;;;16.97;61.63;99801.81;4979169;28;1978;-96
2022/06/21 09:19:29;;;;;;;;;;;;;;;16.98;61.65;99795.31;4984569;28;4312;-96
2022/06/21 09:21:56;;;;;;;;;;;;;;;16.99;61.74;99802.34;4979731;28;2159;-96
2022/06/21 09:24:23;;;;;;;;;;;;;;;16.99;61.59;99799.63;4980668;28;2135;-96
2022/06/21 09:26:49;;;;;;;;;;;;;;;17.00;61.81;99803.97;4990387;28;2194;-96
2022/06/21 09:29:18;;;;;;;;;;;;;;;17.00;61.64;99802.09;4981300;28;1225;-96
2022/06/21 09:31:45;;;;;;;;;;;;;;;17.01;61.62;99801.00;4988799;28;1367;-96
2022/06/21 09:34:11;;;;;;;;;;;;;;;17.02;61.85;99801.81;4985000;28;1180;-96
2022/06/21 09:36:38;;;;;;;;;;;;;;;17.03;61.81;99803.44;4980047;28;3868;-96
2022/06/21 09:39:05;;;;;;;;;;;;;;;17.03;61.80;99804.25;4986948;28;2223;-96
2022/06/21 09:41:31;;;;;;;;;;;;;;;17.03;61.79;99804.25;4995380;28;2257;-96
2022/06/21 09:43:57;;;;;;;;;;;;;;;17.05;61.69;99805.88;4969183;28;3859;-96
2022/06/21 09:46:24;;;;;;;;;;;;;;;17.07;61.57;99806.41;4968934;28;2138;-96
2022/06/21 09:48:50;;;;;;;;;;;;;;;17.07;61.57;99806.41;4986680;28;2273;-96
2022/06/21 09:51:17;;;;;;;;;;;;;;;17.08;61.84;99810.75;5000739;28;1178;-96
2022/06/21 09:53:43;;;;;;;;;;;;;;;17.09;61.72;99809.63;5000181;28;1178;-96
2022/06/21 09:56:10;;;;;;;;;;;;;;;17.09;61.67;99802.31;5000572;28;1230;-96
2022/06/21 09:58:36;;;;;;;;;;;;;;;17.10;61.59;99803.94;4980366;28;2384;-96
2022/06/21 10:01:03;;;;;;;;;;;;;;;17.12;61.77;99806.34;4988315;28;1292;-95
2022/06/21 10:03:29;;;;;;;;;;;;;;;17.12;61.79;99806.34;5000385;28;1272;-96
2022/06/21 10:05:56;;;;;;;;;;;;;;;17.13;61.87;99806.09;5000251;28;1197;-96
2022/06/21 10:08:23;;;;;;;;;;;;;;;17.13;61.69;99810.72;4987726;28;1237;-96
2022/06/21 10:10:49;;;;;;;;;;;;;;;17.14;61.80;99807.72;4961876;28;1268;-96
2022/06/21 10:13:16;;;;;;;;;;;;;;;17.16;61.80;99812.88;4977672;28;2209;-96
2022/06/21 10:15:42;;;;;;;;;;;;;;;17.15;61.70;99817.53;4973903;28;1306;-96
2022/06/21 10:18:09;;;;;;;;;;;;;;;17.17;61.70;99814.50;4973287;28;1911;-96
2022/06/21 10:20:36;;;;;;;;;;;;;;;17.17;61.76;99809.06;4981251;28;1424;-96
2022/06/21 10:23:02;;;;;;;;;;;;;;;17.18;61.60;99813.44;4981465;28;1268;-96
2022/06/21 10:25:29;;;;;;;;;;;;;;;17.19;61.70;99820.47;4968977;28;2505;-96
2022/06/21 10:27:55;;;;;;;;;;;;;;;17.21;61.57;99818.31;4961970;28;2048;-96
2022/06/21 10:30:22;;;;;;;;;;;;;;;17.21;61.84;99821.03;4963396;28;2228;-96
2022/06/21 10:32:49;;;;;;;;;;;;;;;17.22;61.86;99825.34;4994974;28;2269;-96
2022/06/21 10:35:15;;;;;;;;;;;;;;;17.23;61.85;99818.81;4977964;28;1711;-96
2022/06/21 10:37:42;;;;;;;;;;;;;;;17.23;61.84;99816.91;4990322;28;4246;-96
2022/06/21 10:40:08;;;;;;;;;;;;;;;17.24;61.69;99813.09;4994139;28;1184;-96
2022/06/21 10:42:47;;;;;;;;;;;;;;;17.26;61.81;99812.81;4993567;28;2208;-96
2022/06/21 10:45:14;;;;;;;;;;;;;;;17.27;61.77;99810.91;4981023;28;1321;-96
2022/06/21 10:47:41;;;;;;;;;;;;;;;17.27;61.79;99814.47;4972724;28;1530;-96
2022/06/21 10:50:07;;;;;;;;;;;;;;;17.29;61.80;99816.88;4970360;28;1372;-96
2022/06/21 10:52:34;;;;;;;;;;;;;;;17.29;61.95;99806.81;4981672;28;1178;-96
2022/06/21 10:55:01;;;;;;;;;;;;;;;17.31;61.86;99810.06;4980718;28;1455;-96
2022/06/21 10:57:27;;;;;;;;;;;;;;;17.32;62.02;99810.88;4982330;28;1915;-96
2022/06/21 11:02:39;;;;;;;;;;;;;;;17.32;61.97;99811.69;4986763;28;1294;-96
2022/06/21 11:05:05;;;;;;;;;;;;;;;17.35;61.83;99815.75;4985101;28;2347;-96
2022/06/21 11:07:32;;;;;;;;;;;;;;;17.34;62.00;99809.50;4979453;28;2099;-96
2022/06/21 11:09:58;;;;;;;;;;;;;;;17.37;61.86;99811.66;4980537;28;1348;-96
2022/06/21 11:15:12;;;;;;;;;;;;;;;17.38;61.94;99815.19;4952838;28;1599;-96
2022/06/21 11:17:39;;;;;;;;;;;;;;;17.38;61.92;99813.28;4975591;28;2142;-96
2022/06/21 11:20:06;;;;;;;;;;;;;;;17.39;61.94;99814.09;4980276;28;1067;-96
2022/06/21 11:22:32;;;;;;;;;;;;;;;17.40;62.00;99813.81;4980352;28;1196;-96
2022/06/21 11:24:59;;;;;;;;;;;;;;;17.41;61.93;99814.63;4979383;28;1362;-96
2022/06/21 11:27:27;;;;;;;;;;;;;;;17.42;62.16;99817.06;4968423;28;2218;-96
2022/06/21 11:29:54;;;;;;;;;;;;;;;17.43;62.02;99823.31;4960660;28;1213;-96
2022/06/21 11:32:21;;;;;;;;;;;;;;;17.44;62.03;99819.50;4960923;28;1209;-96
2022/06/21 11:34:47;;;;;;;;;;;;;;;17.45;61.98;99808.34;4973057;28;1360;-96
2022/06/21 11:37:14;;;;;;;;;;;;;;;17.45;61.98;99819.22;4979209;28;2161;-96
2022/06/21 11:39:41;;;;;;;;;;;;;;;17.47;62.00;99827.09;4980454;28;1340;-96
2022/06/21 11:42:08;;;;;;;;;;;;;;;17.48;62.12;99817.84;4973856;28;2171;-96
2022/06/21 11:44:34;;;;;;;;;;;;;;;17.48;62.25;99817.84;4972198;28;1939;-96
2022/06/21 11:47:01;;;;;;;;;;;;;;;17.49;62.20;99816.75;4960526;28;1351;-96
2022/06/21 11:49:28;;;;;;;;;;;;;;;17.48;62.14;99818.66;4960791;28;1239;-96
2022/06/21 11:51:54;;;;;;;;;;;;;;;17.51;62.18;99822.72;4972480;28;1295;-96
2022/06/21 11:54:21;;;;;;;;;;;;;;;17.52;62.07;99812.66;4978120;28;2063;-96
2022/06/21 11:56:48;;;;;;;;;;;;;;;17.51;62.08;99817.28;4969669;28;2158;-96
2022/06/21 11:59:15;;;;;;;;;;;;;;;17.53;62.19;99814.25;4965612;28;1316;-96
2022/06/21 12:01:42;;;;;;;;;;;;;;;17.53;62.25;99812.38;4979576;28;1313;-96
2022/06/21 12:04:09;;;;;;;;;;;;;;;17.54;62.29;99814.00;4960795;28;1191;-96
2022/06/21 12:06:35;;;;;;;;;;;;;;;17.55;62.31;99812.06;4972183;28;1203;-96
2022/06/21 12:09:02;;;;;;;;;;;;;;;17.56;62.37;99813.69;4978026;28;2244;-96
2022/06/21 12:11:29;;;;;;;;;;;;;;;17.56;62.39;99813.69;4978726;28;2343;-96
2022/06/21 12:13:55;;;;;;;;;;;;;;;17.57;62.37;99816.16;4979840;28;1321;-96
2022/06/21 12:16:22;;;;;;;;;;;;;;;17.57;62.30;99816.16;4979604;28;1266;-96
2022/06/21 12:18:49;;;;;;;;;;;;;;;17.58;62.59;99817.75;4991416;28;1910;-96
2022/06/21 12:21:15;;;;;;;;;;;;;;;17.58;62.31;99812.31;4990822;28;1616;-96
2022/06/21 12:23:44;;;;;;;;;;;;;;;17.59;62.34;99813.13;4991838;28;1265;-96
2022/06/21 12:26:11;;;;;;;;;;;;;;;17.60;62.55;99817.50;4978234;28;2166;-96
2022/06/21 12:28:38;;;;;;;;;;;;;;;17.61;62.70;99819.91;4991580;28;1431;-96
2022/06/21 12:31:05;;;;;;;;;;;;;;;17.62;62.71;99821.56;4985481;28;3816;-96
2022/06/21 12:33:36;;;;;;;;;;;;;;;17.62;62.54;99821.56;4989315;28;1396;-96
2022/06/21 12:36:03;;;;;;;;;;;;;;;17.63;62.41;99820.44;4988393;28;1563;-96
2022/06/21 12:38:29;;;;;;;;;;;;;;;17.63;62.57;99823.19;4983344;28;1980;-96
2022/06/21 12:40:56;;;;;;;;;;;;;;;17.64;62.63;99815.81;4982202;28;2181;-96
2022/06/21 12:43:22;;;;;;;;;;;;;;;17.65;62.54;99826.44;4982978;28;1299;-96
2022/06/21 12:45:49;;;;;;;;;;;;;;;17.65;62.55;99820.19;4983572;28;1194;-96
2022/06/21 12:48:15;;;;;;;;;;;;;;;17.67;62.70;99823.41;4997016;28;1190;-96
2022/06/21 12:50:42;;;;;;;;;;;;;;;17.67;62.75;99826.13;4989502;28;1348;-96
2022/06/21 12:53:09;;;;;;;;;;;;;;;17.67;62.78;99826.94;4987990;28;2281;-96
2022/06/21 12:55:35;;;;;;;;;;;;;;;17.68;62.60;99825.06;4963918;28;1186;-96
2022/06/21 12:58:02;;;;;;;;;;;;;;;17.69;62.85;99821.22;4978852;28;1982;-96
2022/06/21 13:00:28;;;;;;;;;;;;;;;17.68;62.77;99820.41;4996439;28;1287;-96
2022/06/21 13:02:55;;;;;;;;;;;;;;;17.69;62.76;99827.47;5002153;28;1351;-96
2022/06/21 13:05:21;;;;;;;;;;;;;;;17.71;62.76;99824.50;4979876;28;1304;-96
2022/06/21 13:07:48;;;;;;;;;;;;;;;17.72;62.79;99826.09;4978104;28;2115;-96